Terminal Aerodrome Forecast
Issued by NWS Sterling, VA

Current Version | Previous Version | Graphics & Text | Print | Product List | Glossary On
Versions: 1 2 3 4 5 6 7 8 9 10 11 12 13 14 15 16 17 18 19 20 21 22 23 24 25 26 27 28 29 30
681
FTUS41 KLWX 212341
TAFDCA
TAF
KDCA 212341Z 2200/2224 36008KT 5SM -DZ BR OVC008
     FM221300 35005KT P6SM OVC030
     FM221700 34007KT 5SM -SHRA OVC025=

USA.gov is the U.S. government's official web portal to all federal, state and local government web resources and services.